Tuesday, November 13, 2018, 7:30 PM EST
Back to Local

KDDH, Bennington Morse State Airport

Location: Bennington, VT, United States Lat: 42.883
Local Time: 7:30 PM EST ( 0:30 GMT) Lon: -73.25
Time Zone: US/Eastern Elev: 826 ft

Show me the last for .
Show Decoded

2018-11-13 19:19 METAR KDDH 140019Z AUTO 27007G14KT 230V300 10SM UP OVC010 02/00 A2995 RMK AO2
                 UPB16 CIG 007V012 P0000 T00220000 =
2018-11-13 18:54 METAR KDDH 132354Z AUTO 10SM OVC008 02/01 A2994 RMK AO2 CIG 007V012 SLP144 60000
                 T00220006 10028 20017 53012 =
2018-11-13 18:32 METAR KDDH 132332Z AUTO 24006KT 10SM BKN008 OVC012 02/01 A2993 RMK AO2 CIG
                 007V010 T00220006 =
2018-11-13 18:24 METAR KDDH 132324Z AUTO 25007KT 10SM OVC010 02/01 A2993 RMK AO2 CIG 006V013
                 T00220006 =
2018-11-13 17:54 METAR KDDH 132254Z AUTO 25009KT 10SM BKN007 OVC050 02/01 A2991 RMK AO2 UPE02 CIG
                 005V011 SLP135 P0000 T00220006 =
2018-11-13 17:41 METAR KDDH 132241Z AUTO 27010G16KT 10SM OVC007 02/01 A2991 RMK AO2 UPE02 CIG
                 005V011 P0000 T00220006 =
2018-11-13 17:14 METAR KDDH 132214Z AUTO 27008KT 10SM OVC005 02/01 A2990 RMK AO2 UPE02 P0000
                 T00220006 =
2018-11-13 16:54 METAR KDDH 132154Z AUTO 28008KT 260V320 10SM UP OVC004 02/01 A2990 RMK AO2 UPB29
                 SLP130 P0000 T00220006 =
2018-11-13 15:54 METAR KDDH 132054Z AUTO 28006KT 10SM OVC004 02/01 A2990 RMK AO2 SLP132 T00220006
                 53009 =
2018-11-13 14:54 METAR KDDH 131954Z AUTO VRB06KT 10SM OVC003 02/01 A2988 RMK AO2 SLP123 T00170006
                 =
2018-11-13 13:54 METAR KDDH 131854Z AUTO 30007KT 3SM BR OVC002 02/01 A2986 RMK AO2 SLP118
                 T00220006 =
2018-11-13 12:54 METAR KDDH 131754Z AUTO 31003KT 10SM OVC003 03/02 A2987 RMK AO2 RAE17 SLP121
                 P0000 60046 T00280017 10033 20011 56035 =
2018-11-13 12:02 METAR KDDH 131702Z AUTO 00000KT 6SM -RA BR OVC004 03/02 A2989 RMK AO2 P0000
                 T00280017 =
2018-11-13 11:54 METAR KDDH 131654Z AUTO 00000KT 5SM -RA BR OVC005 02/01 A2989 RMK AO2 SLP128
                 P0007 T00220011 =
2018-11-13 11:24 METAR KDDH 131624Z AUTO 00000KT 5SM -RA BR BKN005 OVC016 03/01 A2991 RMK AO2
                 P0003 T00280011 =
2018-11-13 11:12 METAR KDDH 131612Z AUTO 00000KT 6SM -RA BR BKN006 OVC037 03/01 A2992 RMK AO2
                 P0002 T00280011 =
2018-11-13 10:54 METAR KDDH 131554Z AUTO 00000KT 6SM -RA BR SCT006 OVC037 03/01 A2994 RMK AO2
                 SLP142 P0007 T00280011 =
2018-11-13 10:47 METAR KDDH 131547Z AUTO 00000KT 4SM -RA BR FEW008 OVC039 03/01 A2994 RMK AO2
                 P0006 T00280011 =
2018-11-13 10:34 METAR KDDH 131534Z AUTO 00000KT 2SM -RA BR FEW008 BKN035 OVC045 03/01 A2996 RMK
                 AO2 VIS 1 1/4V4 P0004 T00280011 =
2018-11-13 10:29 METAR KDDH 131529Z AUTO 00000KT 3SM -RA BR BKN032 OVC045 03/01 A2996 RMK AO2
                 P0004 T00280011 =
2018-11-13 10:23 METAR KDDH 131523Z AUTO 00000KT 2 1/2SM -RA BR FEW012 BKN028 OVC045 03/01 A2996
                 RMK AO2 VIS 1 1/4V3 P0003 T00280011 =
2018-11-13 09:54 METAR KDDH 131454Z AUTO 00000KT 3SM -RA BR FEW006 SCT012 OVC022 02/01 A2998 RMK
                 AO2 SLP158 P0011 60032 T00220011 58020 =
2018-11-13 09:46 METAR KDDH 131446Z AUTO 00000KT 4SM -RA BR FEW006 SCT013 OVC022 02/01 A2999 RMK
                 AO2 P0009 T00220006 =
2018-11-13 09:36 METAR KDDH 131436Z AUTO VRB04KT 5SM -RA BR FEW006 BKN011 OVC022 02/01 A2999 RMK
                 AO2 P0008 T00220006 =
2018-11-13 09:02 METAR KDDH 131402Z AUTO 00000KT 3SM RA BR BKN009 OVC015 02/01 A3001 RMK AO2
                 P0002 T00220006 =
2018-11-13 08:54 METAR KDDH 131354Z AUTO 00000KT 3SM RA BR SCT009 OVC015 02/01 A3002 RMK AO2
                 SLP170 P0012 T00220006 =
2018-11-13 08:15 METAR KDDH 131315Z AUTO 33003KT 4SM -RA BR OVC010 02/00 A3003 RMK AO2 CIG
                 007V012 P0003 T00170000 =
2018-11-13 07:54 METAR KDDH 131254Z AUTO 00000KT 6SM -RA BR OVC007 02/01 A3003 RMK AO2 CIG
                 003V010 SLP175 P0009 T00170006 =
2018-11-13 07:30 METAR KDDH 131230Z AUTO 00000KT 7SM -RA BKN004 OVC010 01/00 A3005 RMK AO2 P0005
                 T00110000 =
2018-11-13 07:21 METAR KDDH 131221Z AUTO 00000KT 6SM -RA BR SCT004 BKN008 OVC017 01/00 A3004 RMK
                 AO2 P0004 T00110000 =
2018-11-13 07:02 METAR KDDH 131202Z AUTO 00000KT 5SM -RA BR BKN005 BKN010 OVC015 01/00 A3005 RMK
                 AO2 P0001 T00110000 =
2018-11-13 06:54 METAR KDDH 131154Z AUTO 09003KT 5SM -RA BR SCT005 OVC015 01/00 A3004 RMK AO2
                 SLP180 P0007 60036 70036 T00110000 10033 20006 56043 =
2018-11-13 06:31 METAR KDDH 131131Z AUTO 27003KT 5SM -RA BR FEW003 SCT010 OVC016 01/00 A3006 RMK
                 AO2 P0004 T00110000 =
2018-11-13 06:19 METAR KDDH 131119Z AUTO 30003KT 6SM -RA BR FEW003 BKN010 OVC016 01/00 A3006 RMK
                 AO2 P0002 T00110000 =
2018-11-13 06:12 METAR KDDH 131112Z AUTO 00000KT 5SM -RA BR SCT004 BKN008 OVC016 01/00 A3006 RMK
                 AO2 P0002 T00110000 =
2018-11-13 05:54 METAR KDDH 131054Z AUTO 00000KT 6SM -RA BR SCT003 SCT008 OVC018 01/00 A3007 RMK
                 AO2 SLP190 P0006 T00110000 =
2018-11-13 04:54 METAR KDDH 130954Z AUTO 00000KT 3SM -RA BR FEW003 SCT018 OVC023 01/M01 A3011 RMK
                 AO2 RAB29SNE29 SLP205 P0008 T00061006 =
2018-11-13 04:45 METAR KDDH 130945Z AUTO 00000KT 2SM -RA BR BKN015 OVC024 01/M01 A3012 RMK AO2
                 RAB29SNE29 P0007 T00061006 =
2018-11-13 04:40 METAR KDDH 130940Z AUTO 00000KT 1 3/4SM -RA BR BKN011 OVC024 01/M01 A3012 RMK
                 AO2 RAB29SNE29 PRESFR P0006 T00061006 =
2018-11-13 04:31 METAR KDDH 130931Z AUTO 00000KT 1 1/2SM -RA BR FEW004 BKN009 OVC024 01/M01 A3014
                 RMK AO2 RAB29SNE29 P0005 T00061006 =
2018-11-13 04:20 METAR KDDH 130920Z AUTO 00000KT 1 3/4SM -SN BR FEW004 OVC011 01/M01 A3015 RMK
                 AO2 P0004 T00061006 =
2018-11-13 04:08 METAR KDDH 130908Z AUTO 00000KT 1 1/2SM -SN BR FEW004 OVC017 01/M01 A3016 RMK
                 AO2 P0002 T00061006 =
2018-11-13 03:54 METAR KDDH 130854Z AUTO 00000KT 1 3/4SM -SN BR OVC016 01/M01 A3018 RMK AO2
                 RAE17SNB17 SLP224 P0008 60015 T00061006 58022 =
2018-11-13 03:35 METAR KDDH 130835Z AUTO 00000KT 2 1/2SM -SN BR FEW009 OVC014 01/00 A3018 RMK AO2
                 RAE17SNB17 P0005 T00110000 =
2018-11-13 03:23 METAR KDDH 130823Z AUTO 00000KT 4SM -SN BR FEW009 OVC017 02/00 A3019 RMK AO2
                 RAE17SNB17 P0004 T00170000 TSNO =
2018-11-13 02:54 METAR KDDH 130754Z AUTO 13003KT 5SM RA BR OVC017 02/00 A3021 RMK AO2 SLP235
                 P0007 T00170000 =
2018-11-13 01:54 METAR KDDH 130654Z AUTO 11004KT 10SM -RA OVC026 03/00 A3023 RMK AO2 RAB08 SLP241
                 P0000 T00330000 =
2018-11-13 01:38 METAR KDDH 130638Z AUTO 15006KT 10SM -RA OVC027 04/M01 A3023 RMK AO2 RAB08 P0000
                 T00441006 =
2018-11-13 00:54 METAR KDDH 130554Z AUTO 17006KT 10SM BKN048 OVC075 06/M03 A3024 RMK AO2 SLP245
                 T00561028 10067 20033 58015 =
2018-11-12 23:54 METAR KDDH 130454Z AUTO 19004KT 10SM OVC080 06/M04 A3029 RMK AO2 SLP260
                 T00561039 400781044 =
2018-11-12 22:54 METAR KDDH 130354Z AUTO 23004KT 10SM BKN075 OVC090 06/M04 A3028 RMK AO2 SLP257
                 T00611044 =
2018-11-12 21:54 METAR KDDH 130254Z AUTO 12003KT 10SM BKN070 OVC085 06/M04 A3029 RMK AO2 SLP261
                 T00611044 58002 =
2018-11-12 20:54 METAR KDDH 130154Z AUTO 32003KT 10SM OVC090 04/M04 A3031 RMK AO2 SLP271
                 T00441039 =

Support USWX by starting your Amazon purchase here.